Nikishka, Alaska
Current Conditions -  °F | °C
As of 2:53 PM on Friday 28 Nov 2014 (Local Time) from PAEN Reporting Station
Overcast Overcast  
Wind Chill: 17°   Ceiling: 3600
Heat Index: 25°   Visibility: 10mi
Dew Point: 21°   Wind: 7mph
Humidity: 85%   Direction: 40°NE
Pressure: 30.18"   Gusts: NA
Location:  60.7377°N, 151.324°W
Report Text: PAEN 282353Z 04006KT 10SM SCT025 OVC036 M04/M06 A3018 RMK AO2 SLP223 60000 T10391061 11039 21061 58006
Loading
Personal Weather Stations






























Interactive Weather Map New forecast layout! Learn more

10-Day Weather Forecast

Advertisements
Track Severe Weather on mobile